Uvada, Utah
Current Conditions -  °F | °C
As of 1:53 PM on Sunday 23 Nov 2014 (Local Time) from KCDC Reporting Station
Clear Clear  
Wind Chill: 33°   Ceiling: Unl
Heat Index: 40°   Visibility: 10mi
Dew Point: 11°   Wind: 13mph
Humidity: 31%   Direction: 10°N
Pressure: 30.23"   Gusts: 26mph
Location:  37.8003°N, 113.924°W
Report Text: KCDC 232053Z AUTO 01011G23KT 10SM CLR 04/M12 A3023 RMK AO2 SLP234 T00441117 58005
Loading
Personal Weather Stations






























Interactive Weather Map New forecast layout! Learn more

10-Day Weather Forecast

Advertisements
Track Severe Weather on mobile